world map with MIU marked

MIU - Airport

This information may not be accurate or current and is not valid for navigation or flight planning. No warranty of fitness for any purpose is made or implied.

flag of Nigeria

Donate via PayPal

Additional information is available on the NEW Great Circle Mapper

Location
City:  Maiduguri, Borno, Nigeria
Name:Maiduguri International Airport
ICAO / IATA:DNMA / MIU

Details
Type:Airport (Aerodrome, Airfield)
Use:Public/Civil
Latitude:11°51'19"N (11.855347)
Longitude:13°04'51"E (13.080950)
Datum:WGS 1984
Elevation:1099 ft (335 m)
Runways:1
Longest:9846 × 197 ft (3001 × 60 m)

Time
Timezone:UTC+1 (DST+3)
Local Time:

Weather
METAR:DNMA  (expired)
TAF:DNMA  160930Z 1612/1718 10008KT CAVOK TEMPO 1707/1713 5000 HZ

Related Locations
Nearby:
Farthest:NCNS: 12345 mi / 19867 km
Nassau, CK

Find:

   beyond  
but within

Other Information
Maps:
Sources:

  


 


Great Circle Mapper   Great Circle Mapper
Great Circle Mapper FAQ   Great Circle Mapper FAQ
  Karl's Home Page
KLSē   KLSē Home
   GC on Facebook
Airlines of the World   Airlines of the World
Donate via PayPal


Copyright © 2004-2018, Karl L. Swartz. All rights reserved.
All trademarks mentioned herein belong to their respective owners.

Please see credits for attribution and copyright information.

Karl Swartz <karl@kls2.com>
  Powered by FreeBSD
Valid HTML 4.01!
Labeled with ICRA
hCard Microformat
Geo Microformat